Observations for ST. NAZAIRE MONTOIR, France (LFRZ)

LFRZ 220730Z AUTO 15008KT CAVOK 15/11 Q1022 NOSIG   
LFRZ 220700Z AUTO 14008KT CAVOK 14/11 Q1022 NOSIG   
LFRZ 220630Z AUTO 15007KT CAVOK 14/11 Q1022 NOSIG   
LFRZ 220600Z AUTO 14006KT CAVOK 13/11 Q1023 NOSIG   
LFRZ 220530Z AUTO 10003KT 090V150 CAVOK 12/12 Q1023 NOSIG   
LFRZ 220500Z AUTO VRB03KT CAVOK 12/11 Q1023 NOSIG   
LFRZ 220430Z AUTO 09004KT CAVOK 11/10 Q1023 NOSIG   
LFRZ 220400Z AUTO 08003KT CAVOK 12/10 Q1023 NOSIG   
LFRZ 220330Z AUTO VRB02KT CAVOK 11/10 Q1023 NOSIG   
LFRZ 220300Z AUTO 06002KT CAVOK 12/10 Q1023 NOSIG   
LFRZ 220230Z AUTO 06003KT CAVOK 11/10 Q1023 NOSIG   
LFRZ 220200Z AUTO 25002KT CAVOK 12/09 Q1023 NOSIG   
LFRZ 220130Z AUTO 00000KT CAVOK 11/09 Q1024 NOSIG   
LFRZ 220100Z AUTO VRB02KT CAVOK 12/08 Q1023 NOSIG   
LFRZ 220030Z AUTO 25002KT CAVOK 12/08 Q1024 NOSIG   
LFRZ 220000Z AUTO 00000KT CAVOK 13/09 Q1024 NOSIG   
LFRZ 212330Z AUTO VRB01KT CAVOK 13/09 Q1024 NOSIG   
LFRZ 212300Z AUTO 26004KT CAVOK 14/09 Q1024 NOSIG   
LFRZ 212230Z AUTO 28002KT CAVOK 13/09 Q1024 NOSIG   
LFRZ 212200Z AUTO 27005KT CAVOK 14/09 Q1024 NOSIG   
LFRZ 212130Z AUTO 27006KT CAVOK 14/09 Q1024 NOSIG   
LFRZ 212100Z AUTO 26007KT CAVOK 14/09 Q1024 NOSIG   
LFRZ 212030Z AUTO 26006KT CAVOK 13/09 Q1023 NOSIG   
LFRZ 212000Z AUTO 25006KT CAVOK 12/08 Q1023 NOSIG   
LFRZ 211930Z AUTO 26005KT CAVOK 14/09 Q1023 NOSIG   
LFRZ 211900Z AUTO 26006KT CAVOK 14/09 Q1023 NOSIG   
LFRZ 211830Z AUTO 28008KT CAVOK 15/09 Q1023 NOSIG   
LFRZ 211800Z AUTO 27007KT CAVOK 15/09 Q1022 NOSIG   
LFRZ 211730Z AUTO 27008KT CAVOK 16/09 Q1021 NOSIG   
LFRZ 211700Z AUTO 27008KT 240V300 CAVOK 17/09 Q1022 NOSIG   
LFRZ 211630Z AUTO 28011KT CAVOK 17/09 Q1021 NOSIG   
LFRZ 211600Z AUTO 27011KT 240V300 9999 FEW035 17/09 Q1021 NOSIG 
LFRZ 211530Z AUTO 28011KT 9999 FEW036 SCT220 BKN250 17/09 Q1021 NOSIG   
LFRZ 211500Z AUTO 28012KT CAVOK 17/08 Q1021 NOSIG   
LFRZ 211430Z AUTO 29011KT 250V310 9999 FEW038 17/08 Q1021 NOSIG 
LFRZ 211400Z AUTO 28012KT 9999 FEW041 17/08 Q1021 NOSIG 
LFRZ 211330Z AUTO 27010KT 230V310 CAVOK 17/08 Q1021 NOSIG   
LFRZ 211300Z AUTO 28008KT 250V310 9999 FEW040 17/09 Q1020 NOSIG 
LFRZ 211230Z AUTO 30009KT 260V350 CAVOK 17/08 Q1020 NOSIG   
LFRZ 211200Z AUTO 29011KT 9999 FEW040 17/08 Q1020 NOSIG 
LFRZ 211130Z AUTO 28011KT 9999 SCT037 BKN044 17/08 Q1019 NOSIG  
LFRZ 211100Z AUTO 30009KT 270V340 9999 FEW037 17/08 Q1019 NOSIG 
LFRZ 211030Z AUTO 30008KT 270V330 9999 FEW034 16/09 Q1019 NOSIG 
LFRZ 211000Z AUTO 30007KT 260V020 CAVOK 16/09 Q1019 NOSIG   
LFRZ 210930Z AUTO 30008KT 270V330 CAVOK 15/09 Q1018 NOSIG   
LFRZ 210900Z AUTO 29009KT 260V330 CAVOK 15/10 Q1018 NOSIG   
LFRZ 210830Z AUTO 30008KT 260V340 CAVOK 15/10 Q1017 NOSIG   
LFRZ 210800Z AUTO 29006KT 260V320 CAVOK 15/11 Q1017 NOSIG   
LFRZ 210730Z AUTO 29003KT 260V350 CAVOK 14/11 Q1016 NOSIG   
LFRZ 210700Z AUTO VRB03KT CAVOK 14/11 Q1015 NOSIG